sensor_id;sensor_type;location;lat;lon;timestamp;P1;durP1;ratioP1;P2;durP2;ratioP2
23543;SDS011;11950;51.230;4.012;2024-01-15T00:00:46;3.22;;;1.23;;
23543;SDS011;11950;51.230;4.012;2024-01-15T00:03:13;2.55;;;0.93;;
23543;SDS011;11950;51.230;4.012;2024-01-15T00:05:40;3.60;;;1.00;;
23543;SDS011;11950;51.230;4.012;2024-01-15T00:08:06;3.50;;;1.17;;
23543;SDS011;11950;51.230;4.012;2024-01-15T00:10:33;3.05;;;0.82;;
23543;SDS011;11950;51.230;4.012;2024-01-15T00:12:59;1.48;;;0.45;;
23543;SDS011;11950;51.230;4.012;2024-01-15T00:15:25;3.80;;;0.40;;
23543;SDS011;11950;51.230;4.012;2024-01-15T00:17:54;2.38;;;0.32;;
23543;SDS011;11950;51.230;4.012;2024-01-15T00:20:20;1.70;;;0.30;;
23543;SDS011;11950;51.230;4.012;2024-01-15T00:22:46;1.33;;;0.22;;
23543;SDS011;11950;51.230;4.012;2024-01-15T00:25:12;1.48;;;0.30;;
23543;SDS011;11950;51.230;4.012;2024-01-15T00:27:39;3.15;;;0.30;;
23543;SDS011;11950;51.230;4.012;2024-01-15T00:30:05;2.05;;;0.30;;
23543;SDS011;11950;51.230;4.012;2024-01-15T00:32:32;3.10;;;0.20;;
23543;SDS011;11950;51.230;4.012;2024-01-15T00:34:58;2.38;;;0.20;;
23543;SDS011;11950;51.230;4.012;2024-01-15T00:37:24;2.58;;;0.30;;
23543;SDS011;11950;51.230;4.012;2024-01-15T00:39:50;3.13;;;0.20;;
23543;SDS011;11950;51.230;4.012;2024-01-15T00:42:16;4.65;;;0.28;;
23543;SDS011;11950;51.230;4.012;2024-01-15T00:44:43;0.90;;;0.20;;
23543;SDS011;11950;51.230;4.012;2024-01-15T00:47:09;1.60;;;0.20;;
23543;SDS011;11950;51.230;4.012;2024-01-15T00:49:35;3.33;;;0.50;;
23543;SDS011;11950;51.230;4.012;2024-01-15T00:52:01;0.77;;;0.47;;
23543;SDS011;11950;51.230;4.012;2024-01-15T00:54:28;3.00;;;0.30;;
23543;SDS011;11950;51.230;4.012;2024-01-15T00:56:54;1.77;;;0.20;;
23543;SDS011;11950;51.230;4.012;2024-01-15T00:59:20;2.03;;;0.28;;
23543;SDS011;11950;51.230;4.012;2024-01-15T01:01:47;3.08;;;0.30;;
23543;SDS011;11950;51.230;4.012;2024-01-15T01:04:13;3.15;;;0.40;;
23543;SDS011;11950;51.230;4.012;2024-01-15T01:06:39;1.67;;;0.40;;
23543;SDS011;11950;51.230;4.012;2024-01-15T01:09:05;3.58;;;0.40;;
23543;SDS011;11950;51.230;4.012;2024-01-15T01:11:32;2.05;;;0.40;;
23543;SDS011;11950;51.230;4.012;2024-01-15T01:13:58;2.60;;;0.52;;
23543;SDS011;11950;51.230;4.012;2024-01-15T01:16:24;2.60;;;0.50;;
23543;SDS011;11950;51.230;4.012;2024-01-15T01:18:50;2.75;;;0.30;;
23543;SDS011;11950;51.230;4.012;2024-01-15T01:21:16;4.75;;;0.43;;
23543;SDS011;11950;51.230;4.012;2024-01-15T01:23:43;1.63;;;0.32;;
23543;SDS011;11950;51.230;4.012;2024-01-15T01:26:09;2.67;;;0.30;;
23543;SDS011;11950;51.230;4.012;2024-01-15T01:28:35;2.30;;;0.20;;
23543;SDS011;11950;51.230;4.012;2024-01-15T01:31:02;0.80;;;0.10;;
23543;SDS011;11950;51.230;4.012;2024-01-15T01:33:28;0.90;;;0.20;;
23543;SDS011;11950;51.230;4.012;2024-01-15T01:35:54;1.63;;;0.20;;
23543;SDS011;11950;51.230;4.012;2024-01-15T01:38:20;0.98;;;0.10;;
23543;SDS011;11950;51.230;4.012;2024-01-15T01:40:47;0.40;;;0.10;;
23543;SDS011;11950;51.230;4.012;2024-01-15T01:43:13;1.75;;;0.15;;
23543;SDS011;11950;51.230;4.012;2024-01-15T01:45:39;0.30;;;0.10;;
23543;SDS011;11950;51.230;4.012;2024-01-15T01:48:05;2.20;;;0.28;;
23543;SDS011;11950;51.230;4.012;2024-01-15T01:50:32;0.77;;;0.50;;
23543;SDS011;11950;51.230;4.012;2024-01-15T01:53:00;3.88;;;0.20;;
23543;SDS011;11950;51.230;4.012;2024-01-15T01:55:29;2.97;;;0.20;;
23543;SDS011;11950;51.230;4.012;2024-01-15T01:57:58;0.57;;;0.30;;
23543;SDS011;11950;51.230;4.012;2024-01-15T02:00:25;1.42;;;0.20;;
23543;SDS011;11950;51.230;4.012;2024-01-15T02:02:52;2.60;;;0.20;;
23543;SDS011;11950;51.230;4.012;2024-01-15T02:05:18;1.13;;;0.20;;
23543;SDS011;11950;51.230;4.012;2024-01-15T02:07:46;2.92;;;0.38;;
23543;SDS011;11950;51.230;4.012;2024-01-15T02:10:13;3.67;;;0.65;;
23543;SDS011;11950;51.230;4.012;2024-01-15T02:12:40;3.83;;;0.60;;
23543;SDS011;11950;51.230;4.012;2024-01-15T02:15:07;1.58;;;0.60;;
23543;SDS011;11950;51.230;4.012;2024-01-15T02:17:33;5.45;;;0.70;;
23543;SDS011;11950;51.230;4.012;2024-01-15T02:20:00;3.90;;;0.85;;
23543;SDS011;11950;51.230;4.012;2024-01-15T02:22:26;6.63;;;0.57;;
23543;SDS011;11950;51.230;4.012;2024-01-15T02:24:53;3.20;;;0.30;;
23543;SDS011;11950;51.230;4.012;2024-01-15T02:27:20;1.90;;;0.38;;
23543;SDS011;11950;51.230;4.012;2024-01-15T02:29:46;2.42;;;0.40;;
23543;SDS011;11950;51.230;4.012;2024-01-15T02:32:13;4.85;;;0.30;;
23543;SDS011;11950;51.230;4.012;2024-01-15T02:34:40;0.60;;;0.30;;
23543;SDS011;11950;51.230;4.012;2024-01-15T02:37:06;2.58;;;0.30;;
23543;SDS011;11950;51.230;4.012;2024-01-15T02:39:32;1.75;;;0.35;;
23543;SDS011;11950;51.230;4.012;2024-01-15T02:41:58;4.65;;;0.50;;
23543;SDS011;11950;51.230;4.012;2024-01-15T02:44:25;2.88;;;0.52;;
23543;SDS011;11950;51.230;4.012;2024-01-15T02:46:51;1.95;;;0.30;;
23543;SDS011;11950;51.230;4.012;2024-01-15T02:49:17;2.45;;;0.45;;
23543;SDS011;11950;51.230;4.012;2024-01-15T02:51:43;1.52;;;0.43;;
23543;SDS011;11950;51.230;4.012;2024-01-15T02:54:10;2.05;;;0.40;;
23543;SDS011;11950;51.230;4.012;2024-01-15T02:56:37;3.17;;;0.30;;
23543;SDS011;11950;51.230;4.012;2024-01-15T02:59:03;2.67;;;0.30;;
23543;SDS011;11950;51.230;4.012;2024-01-15T03:01:29;3.53;;;0.40;;
23543;SDS011;11950;51.230;4.012;2024-01-15T03:03:55;3.25;;;0.55;;
23543;SDS011;11950;51.230;4.012;2024-01-15T03:06:22;4.78;;;0.60;;
23543;SDS011;11950;51.230;4.012;2024-01-15T03:08:49;1.92;;;0.32;;
23543;SDS011;11950;51.230;4.012;2024-01-15T03:11:15;1.42;;;0.32;;
23543;SDS011;11950;51.230;4.012;2024-01-15T03:13:41;3.40;;;0.45;;
23543;SDS011;11950;51.230;4.012;2024-01-15T03:16:08;4.93;;;0.50;;
23543;SDS011;11950;51.230;4.012;2024-01-15T03:18:34;3.30;;;0.30;;
23543;SDS011;11950;51.230;4.012;2024-01-15T03:21:00;3.40;;;0.43;;
23543;SDS011;11950;51.230;4.012;2024-01-15T03:23:27;3.10;;;0.43;;
23543;SDS011;11950;51.230;4.012;2024-01-15T03:25:53;3.95;;;0.50;;
23543;SDS011;11950;51.230;4.012;2024-01-15T03:28:19;3.13;;;0.50;;
23543;SDS011;11950;51.230;4.012;2024-01-15T03:30:45;2.75;;;0.60;;
23543;SDS011;11950;51.230;4.012;2024-01-15T03:33:11;2.45;;;0.40;;
23543;SDS011;11950;51.230;4.012;2024-01-15T03:35:38;3.95;;;0.90;;
23543;SDS011;11950;51.230;4.012;2024-01-15T03:38:04;3.22;;;0.50;;
23543;SDS011;11950;51.230;4.012;2024-01-15T03:40:30;1.52;;;0.40;;
23543;SDS011;11950;51.230;4.012;2024-01-15T03:42:56;6.75;;;0.75;;
23543;SDS011;11950;51.230;4.012;2024-01-15T03:45:22;5.63;;;0.75;;
23543;SDS011;11950;51.230;4.012;2024-01-15T03:47:49;2.17;;;0.50;;
23543;SDS011;11950;51.230;4.012;2024-01-15T03:50:15;1.23;;;0.50;;
23543;SDS011;11950;51.230;4.012;2024-01-15T03:52:41;4.30;;;0.75;;
23543;SDS011;11950;51.230;4.012;2024-01-15T03:55:07;4.57;;;0.60;;
23543;SDS011;11950;51.230;4.012;2024-01-15T03:57:34;2.22;;;0.40;;
23543;SDS011;11950;51.230;4.012;2024-01-15T04:00:00;3.50;;;0.50;;
23543;SDS011;11950;51.230;4.012;2024-01-15T04:02:26;3.10;;;0.50;;
23543;SDS011;11950;51.230;4.012;2024-01-15T04:04:53;4.43;;;0.60;;
23543;SDS011;11950;51.230;4.012;2024-01-15T04:07:19;2.45;;;0.47;;
23543;SDS011;11950;51.230;4.012;2024-01-15T04:09:45;2.25;;;0.50;;
23543;SDS011;11950;51.230;4.012;2024-01-15T04:12:11;2.60;;;0.60;;
23543;SDS011;11950;51.230;4.012;2024-01-15T04:14:38;2.25;;;0.68;;
23543;SDS011;11950;51.230;4.012;2024-01-15T04:17:04;3.45;;;0.65;;
23543;SDS011;11950;51.230;4.012;2024-01-15T04:19:30;2.38;;;0.52;;
23543;SDS011;11950;51.230;4.012;2024-01-15T04:21:56;4.25;;;0.80;;
23543;SDS011;11950;51.230;4.012;2024-01-15T04:24:23;4.03;;;1.00;;
23543;SDS011;11950;51.230;4.012;2024-01-15T04:26:49;2.53;;;0.90;;
23543;SDS011;11950;51.230;4.012;2024-01-15T04:29:16;1.48;;;0.80;;
23543;SDS011;11950;51.230;4.012;2024-01-15T04:31:42;3.13;;;0.60;;
23543;SDS011;11950;51.230;4.012;2024-01-15T04:34:08;5.68;;;0.63;;
23543;SDS011;11950;51.230;4.012;2024-01-15T04:36:40;2.53;;;1.00;;
23543;SDS011;11950;51.230;4.012;2024-01-15T04:39:07;1.88;;;0.80;;
23543;SDS011;11950;51.230;4.012;2024-01-15T04:41:33;2.78;;;0.65;;
23543;SDS011;11950;51.230;4.012;2024-01-15T04:44:00;4.40;;;0.70;;
23543;SDS011;11950;51.230;4.012;2024-01-15T04:46:26;4.65;;;0.75;;
23543;SDS011;11950;51.230;4.012;2024-01-15T04:48:53;2.28;;;0.70;;
23543;SDS011;11950;51.230;4.012;2024-01-15T04:51:19;3.30;;;0.52;;
23543;SDS011;11950;51.230;4.012;2024-01-15T04:53:45;5.03;;;1.13;;
23543;SDS011;11950;51.230;4.012;2024-01-15T04:56:11;4.25;;;0.88;;
23543;SDS011;11950;51.230;4.012;2024-01-15T04:58:37;5.97;;;0.75;;
23543;SDS011;11950;51.230;4.012;2024-01-15T05:01:04;1.92;;;0.65;;
23543;SDS011;11950;51.230;4.012;2024-01-15T05:03:30;5.70;;;1.20;;
23543;SDS011;11950;51.230;4.012;2024-01-15T05:05:56;5.55;;;0.70;;
23543;SDS011;11950;51.230;4.012;2024-01-15T05:08:22;3.92;;;0.70;;
23543;SDS011;11950;51.230;4.012;2024-01-15T05:10:48;1.08;;;0.60;;
23543;SDS011;11950;51.230;4.012;2024-01-15T05:13:15;5.25;;;0.50;;
23543;SDS011;11950;51.230;4.012;2024-01-15T05:15:41;3.15;;;0.80;;
23543;SDS011;11950;51.230;4.012;2024-01-15T05:18:07;2.30;;;0.70;;
23543;SDS011;11950;51.230;4.012;2024-01-15T05:20:34;1.23;;;0.70;;
23543;SDS011;11950;51.230;4.012;2024-01-15T05:23:00;6.20;;;0.95;;
23543;SDS011;11950;51.230;4.012;2024-01-15T05:25:26;4.82;;;0.60;;
23543;SDS011;11950;51.230;4.012;2024-01-15T05:27:52;2.17;;;0.80;;
23543;SDS011;11950;51.230;4.012;2024-01-15T05:30:19;3.13;;;0.90;;
23543;SDS011;11950;51.230;4.012;2024-01-15T05:32:45;5.30;;;0.70;;
23543;SDS011;11950;51.230;4.012;2024-01-15T05:35:11;2.17;;;0.75;;
23543;SDS011;11950;51.230;4.012;2024-01-15T05:37:39;2.63;;;0.60;;
23543;SDS011;11950;51.230;4.012;2024-01-15T05:40:09;3.60;;;0.70;;
23543;SDS011;11950;51.230;4.012;2024-01-15T05:42:35;3.03;;;0.70;;
23543;SDS011;11950;51.230;4.012;2024-01-15T05:45:01;1.00;;;0.60;;
23543;SDS011;11950;51.230;4.012;2024-01-15T05:47:30;2.17;;;0.50;;
23543;SDS011;11950;51.230;4.012;2024-01-15T05:49:56;3.30;;;0.60;;
23543;SDS011;11950;51.230;4.012;2024-01-15T05:52:23;3.60;;;0.70;;
23543;SDS011;11950;51.230;4.012;2024-01-15T05:54:50;5.00;;;0.80;;
23543;SDS011;11950;51.230;4.012;2024-01-15T05:57:16;1.92;;;0.63;;
23543;SDS011;11950;51.230;4.012;2024-01-15T05:59:42;2.55;;;0.80;;
23543;SDS011;11950;51.230;4.012;2024-01-15T06:02:10;2.20;;;0.60;;
23543;SDS011;11950;51.230;4.012;2024-01-15T06:04:36;5.13;;;0.60;;
23543;SDS011;11950;51.230;4.012;2024-01-15T06:07:03;1.27;;;0.50;;
23543;SDS011;11950;51.230;4.012;2024-01-15T06:09:29;4.60;;;1.08;;
23543;SDS011;11950;51.230;4.012;2024-01-15T06:11:57;4.00;;;0.77;;
23543;SDS011;11950;51.230;4.012;2024-01-15T06:14:23;7.05;;;0.63;;
23543;SDS011;11950;51.230;4.012;2024-01-15T06:16:49;5.80;;;0.80;;
23543;SDS011;11950;51.230;4.012;2024-01-15T06:19:15;1.42;;;0.65;;
23543;SDS011;11950;51.230;4.012;2024-01-15T06:21:42;2.97;;;0.45;;
23543;SDS011;11950;51.230;4.012;2024-01-15T06:24:08;4.38;;;0.60;;
23543;SDS011;11950;51.230;4.012;2024-01-15T06:26:35;2.72;;;0.60;;
23543;SDS011;11950;51.230;4.012;2024-01-15T06:29:02;2.10;;;0.40;;
23543;SDS011;11950;51.230;4.012;2024-01-15T06:31:28;1.40;;;0.50;;
23543;SDS011;11950;51.230;4.012;2024-01-15T06:33:55;4.55;;;0.85;;
23543;SDS011;11950;51.230;4.012;2024-01-15T06:36:21;5.75;;;0.70;;
23543;SDS011;11950;51.230;4.012;2024-01-15T06:38:48;1.98;;;0.65;;
23543;SDS011;11950;51.230;4.012;2024-01-15T06:41:14;3.70;;;1.17;;
23543;SDS011;11950;51.230;4.012;2024-01-15T06:43:40;3.88;;;1.17;;
23543;SDS011;11950;51.230;4.012;2024-01-15T06:46:06;5.07;;;0.57;;
23543;SDS011;11950;51.230;4.012;2024-01-15T06:48:33;3.72;;;0.60;;
23543;SDS011;11950;51.230;4.012;2024-01-15T06:50:59;3.15;;;0.63;;
23543;SDS011;11950;51.230;4.012;2024-01-15T06:53:25;4.85;;;0.65;;
23543;SDS011;11950;51.230;4.012;2024-01-15T06:55:51;6.53;;;0.60;;
23543;SDS011;11950;51.230;4.012;2024-01-15T06:58:17;4.75;;;0.50;;
23543;SDS011;11950;51.230;4.012;2024-01-15T07:00:44;5.88;;;0.60;;
23543;SDS011;11950;51.230;4.012;2024-01-15T07:03:10;2.58;;;0.50;;
23543;SDS011;11950;51.230;4.012;2024-01-15T07:05:37;3.97;;;0.57;;
23543;SDS011;11950;51.230;4.012;2024-01-15T07:08:03;3.13;;;0.50;;
23543;SDS011;11950;51.230;4.012;2024-01-15T07:10:30;1.98;;;0.43;;
23543;SDS011;11950;51.230;4.012;2024-01-15T07:12:56;1.52;;;0.50;;
23543;SDS011;11950;51.230;4.012;2024-01-15T07:15:22;3.90;;;0.60;;
23543;SDS011;11950;51.230;4.012;2024-01-15T07:17:49;3.53;;;0.60;;
23543;SDS011;11950;51.230;4.012;2024-01-15T07:20:15;3.60;;;0.57;;
23543;SDS011;11950;51.230;4.012;2024-01-15T07:22:41;3.40;;;0.50;;
23543;SDS011;11950;51.230;4.012;2024-01-15T07:25:07;5.45;;;0.60;;
23543;SDS011;11950;51.230;4.012;2024-01-15T07:27:34;4.40;;;0.50;;
23543;SDS011;11950;51.230;4.012;2024-01-15T07:30:00;3.53;;;0.55;;
23543;SDS011;11950;51.230;4.012;2024-01-15T07:32:26;4.72;;;0.88;;
23543;SDS011;11950;51.230;4.012;2024-01-15T07:34:52;4.70;;;0.73;;
23543;SDS011;11950;51.230;4.012;2024-01-15T07:37:19;4.25;;;0.50;;
23543;SDS011;11950;51.230;4.012;2024-01-15T07:39:45;3.80;;;0.75;;
23543;SDS011;11950;51.230;4.012;2024-01-15T07:42:11;3.80;;;0.50;;
23543;SDS011;11950;51.230;4.012;2024-01-15T07:44:37;3.95;;;0.52;;
23543;SDS011;11950;51.230;4.012;2024-01-15T07:47:04;2.38;;;0.45;;
23543;SDS011;11950;51.230;4.012;2024-01-15T07:49:30;3.13;;;0.65;;
23543;SDS011;11950;51.230;4.012;2024-01-15T07:51:56;3.35;;;0.40;;
23543;SDS011;11950;51.230;4.012;2024-01-15T07:54:23;2.78;;;0.40;;
23543;SDS011;11950;51.230;4.012;2024-01-15T07:57:07;9.50;;;0.52;;
23543;SDS011;11950;51.230;4.012;2024-01-15T07:59:34;1.50;;;0.40;;
23543;SDS011;11950;51.230;4.012;2024-01-15T08:02:01;7.35;;;0.70;;
23543;SDS011;11950;51.230;4.012;2024-01-15T08:04:27;7.25;;;0.47;;
23543;SDS011;11950;51.230;4.012;2024-01-15T08:06:53;3.83;;;0.55;;
23543;SDS011;11950;51.230;4.012;2024-01-15T08:09:20;7.55;;;0.73;;
23543;SDS011;11950;51.230;4.012;2024-01-15T08:11:46;3.45;;;0.40;;
23543;SDS011;11950;51.230;4.012;2024-01-15T08:14:12;2.03;;;0.73;;
23543;SDS011;11950;51.230;4.012;2024-01-15T08:16:39;6.50;;;0.50;;
23543;SDS011;11950;51.230;4.012;2024-01-15T08:19:05;8.05;;;0.70;;
23543;SDS011;11950;51.230;4.012;2024-01-15T08:21:32;1.05;;;0.50;;
23543;SDS011;11950;51.230;4.012;2024-01-15T08:23:59;8.35;;;0.60;;
23543;SDS011;11950;51.230;4.012;2024-01-15T08:26:26;5.78;;;0.70;;
23543;SDS011;11950;51.230;4.012;2024-01-15T08:28:52;1.27;;;0.50;;
23543;SDS011;11950;51.230;4.012;2024-01-15T08:31:18;2.20;;;0.57;;
23543;SDS011;11950;51.230;4.012;2024-01-15T08:33:44;2.08;;;0.47;;
23543;SDS011;11950;51.230;4.012;2024-01-15T08:36:11;3.03;;;0.57;;
23543;SDS011;11950;51.230;4.012;2024-01-15T08:38:38;4.93;;;0.52;;
23543;SDS011;11950;51.230;4.012;2024-01-15T08:41:04;2.97;;;0.50;;
23543;SDS011;11950;51.230;4.012;2024-01-15T08:43:31;5.63;;;0.68;;
23543;SDS011;11950;51.230;4.012;2024-01-15T08:45:57;5.13;;;0.75;;
23543;SDS011;11950;51.230;4.012;2024-01-15T08:48:24;3.58;;;0.70;;
23543;SDS011;11950;51.230;4.012;2024-01-15T08:50:54;3.97;;;0.80;;
23543;SDS011;11950;51.230;4.012;2024-01-15T08:53:21;3.88;;;0.90;;
23543;SDS011;11950;51.230;4.012;2024-01-15T08:55:47;4.00;;;0.70;;
23543;SDS011;11950;51.230;4.012;2024-01-15T08:58:13;4.35;;;1.08;;
23543;SDS011;11950;51.230;4.012;2024-01-15T09:00:40;1.88;;;0.70;;
23543;SDS011;11950;51.230;4.012;2024-01-15T09:03:06;6.88;;;0.70;;
23543;SDS011;11950;51.230;4.012;2024-01-15T09:05:34;11.68;;;1.10;;
23543;SDS011;11950;51.230;4.012;2024-01-15T09:08:00;5.78;;;1.10;;
23543;SDS011;11950;51.230;4.012;2024-01-15T09:10:27;4.30;;;1.25;;
23543;SDS011;11950;51.230;4.012;2024-01-15T09:12:53;3.00;;;1.00;;
23543;SDS011;11950;51.230;4.012;2024-01-15T09:15:19;2.67;;;0.70;;
23543;SDS011;11950;51.230;4.012;2024-01-15T09:17:45;3.75;;;0.80;;
23543;SDS011;11950;51.230;4.012;2024-01-15T09:20:12;7.10;;;0.70;;
23543;SDS011;11950;51.230;4.012;2024-01-15T09:22:38;7.45;;;0.70;;
23543;SDS011;11950;51.230;4.012;2024-01-15T09:25:07;3.58;;;0.55;;
23543;SDS011;11950;51.230;4.012;2024-01-15T09:27:35;5.75;;;1.30;;
23543;SDS011;11950;51.230;4.012;2024-01-15T09:30:02;4.50;;;0.70;;
23543;SDS011;11950;51.230;4.012;2024-01-15T09:32:31;5.13;;;0.98;;
23543;SDS011;11950;51.230;4.012;2024-01-15T09:34:58;5.75;;;0.80;;
23543;SDS011;11950;51.230;4.012;2024-01-15T09:37:24;6.85;;;1.20;;
23543;SDS011;11950;51.230;4.012;2024-01-15T09:39:51;4.60;;;0.93;;
23543;SDS011;11950;51.230;4.012;2024-01-15T09:42:17;5.57;;;0.95;;
23543;SDS011;11950;51.230;4.012;2024-01-15T09:44:43;7.45;;;0.70;;
23543;SDS011;11950;51.230;4.012;2024-01-15T09:47:11;1.98;;;0.60;;
23543;SDS011;11950;51.230;4.012;2024-01-15T09:49:38;3.85;;;0.50;;
23543;SDS011;11950;51.230;4.012;2024-01-15T09:52:06;2.78;;;0.60;;
23543;SDS011;11950;51.230;4.012;2024-01-15T09:54:33;1.67;;;0.50;;
23543;SDS011;11950;51.230;4.012;2024-01-15T09:57:00;4.97;;;0.63;;
23543;SDS011;11950;51.230;4.012;2024-01-15T09:59:27;4.13;;;0.60;;
23543;SDS011;11950;51.230;4.012;2024-01-15T10:01:54;5.18;;;0.60;;
23543;SDS011;11950;51.230;4.012;2024-01-15T10:04:22;2.90;;;0.57;;
23543;SDS011;11950;51.230;4.012;2024-01-15T10:06:50;5.90;;;0.70;;
23543;SDS011;11950;51.230;4.012;2024-01-15T10:09:17;4.40;;;0.50;;
23543;SDS011;11950;51.230;4.012;2024-01-15T10:11:44;3.08;;;0.52;;
23543;SDS011;11950;51.230;4.012;2024-01-15T10:14:11;2.95;;;0.52;;
23543;SDS011;11950;51.230;4.012;2024-01-15T10:16:38;4.88;;;0.75;;
23543;SDS011;11950;51.230;4.012;2024-01-15T10:19:05;8.43;;;0.70;;
23543;SDS011;11950;51.230;4.012;2024-01-15T10:21:32;5.00;;;0.50;;
23543;SDS011;11950;51.230;4.012;2024-01-15T10:24:00;5.20;;;1.23;;
23543;SDS011;11950;51.230;4.012;2024-01-15T10:26:28;6.22;;;0.70;;
23543;SDS011;11950;51.230;4.012;2024-01-15T10:28:55;5.25;;;0.75;;
23543;SDS011;11950;51.230;4.012;2024-01-15T10:31:21;6.00;;;1.00;;
23543;SDS011;11950;51.230;4.012;2024-01-15T10:33:48;3.53;;;0.77;;
23543;SDS011;11950;51.230;4.012;2024-01-15T10:36:15;4.30;;;0.80;;
23543;SDS011;11950;51.230;4.012;2024-01-15T10:38:46;5.15;;;1.00;;
23543;SDS011;11950;51.230;4.012;2024-01-15T10:41:12;4.35;;;0.50;;
23543;SDS011;11950;51.230;4.012;2024-01-15T10:43:39;4.53;;;0.70;;
23543;SDS011;11950;51.230;4.012;2024-01-15T10:46:08;1.80;;;0.52;;
23543;SDS011;11950;51.230;4.012;2024-01-15T10:48:34;3.45;;;0.50;;
23543;SDS011;11950;51.230;4.012;2024-01-15T10:51:01;3.20;;;0.70;;
23543;SDS011;11950;51.230;4.012;2024-01-15T10:53:39;3.15;;;0.47;;
23543;SDS011;11950;51.230;4.012;2024-01-15T10:56:06;5.88;;;0.68;;
23543;SDS011;11950;51.230;4.012;2024-01-15T10:58:33;2.92;;;0.52;;
23543;SDS011;11950;51.230;4.012;2024-01-15T11:01:01;8.93;;;0.70;;
23543;SDS011;11950;51.230;4.012;2024-01-15T11:03:28;3.65;;;0.77;;
23543;SDS011;11950;51.230;4.012;2024-01-15T11:05:54;5.93;;;0.70;;
23543;SDS011;11950;51.230;4.012;2024-01-15T11:08:21;5.15;;;0.60;;
23543;SDS011;11950;51.230;4.012;2024-01-15T11:10:50;5.47;;;0.52;;
23543;SDS011;11950;51.230;4.012;2024-01-15T11:16:11;4.80;;;0.55;;
23543;SDS011;11950;51.230;4.012;2024-01-15T11:18:42;2.47;;;0.50;;
23543;SDS011;11950;51.230;4.012;2024-01-15T11:21:26;2.50;;;0.60;;
23543;SDS011;11950;51.230;4.012;2024-01-15T11:23:56;1.38;;;0.50;;
23543;SDS011;11950;51.230;4.012;2024-01-15T11:26:27;2.70;;;0.70;;
23543;SDS011;11950;51.230;4.012;2024-01-15T11:29:00;5.68;;;0.85;;
23543;SDS011;11950;51.230;4.012;2024-01-15T11:34:07;8.75;;;1.00;;
23543;SDS011;11950;51.230;4.012;2024-01-15T11:42:03;5.70;;;0.55;;
23543;SDS011;11950;51.230;4.012;2024-01-15T11:44:30;4.70;;;0.68;;
23543;SDS011;11950;51.230;4.012;2024-01-15T11:47:00;4.60;;;0.68;;
23543;SDS011;11950;51.230;4.012;2024-01-15T11:52:14;2.90;;;0.65;;
23543;SDS011;11950;51.230;4.012;2024-01-15T11:54:46;5.43;;;0.70;;
23543;SDS011;11950;51.230;4.012;2024-01-15T11:57:25;3.10;;;0.60;;
23543;SDS011;11950;51.230;4.012;2024-01-15T12:02:41;4.10;;;0.68;;
23543;SDS011;11950;51.230;4.012;2024-01-15T12:05:10;8.65;;;0.98;;
23543;SDS011;11950;51.230;4.012;2024-01-15T12:07:40;3.50;;;0.93;;
23543;SDS011;11950;51.230;4.012;2024-01-15T12:10:11;6.50;;;1.13;;
23543;SDS011;11950;51.230;4.012;2024-01-15T12:15:11;5.72;;;0.90;;
23543;SDS011;11950;51.230;4.012;2024-01-15T12:17:38;6.10;;;1.33;;
23543;SDS011;11950;51.230;4.012;2024-01-15T12:20:04;4.03;;;0.50;;
23543;SDS011;11950;51.230;4.012;2024-01-15T12:22:31;2.95;;;0.52;;
23543;SDS011;11950;51.230;4.012;2024-01-15T12:25:00;0.57;;;0.30;;
23543;SDS011;11950;51.230;4.012;2024-01-15T12:27:26;0.82;;;0.20;;
23543;SDS011;11950;51.230;4.012;2024-01-15T12:29:53;1.40;;;0.20;;
23543;SDS011;11950;51.230;4.012;2024-01-15T12:32:19;0.03;;;0.00;;
23543;SDS011;11950;51.230;4.012;2024-01-15T12:34:49;2.47;;;0.30;;
23543;SDS011;11950;51.230;4.012;2024-01-15T12:37:17;0.68;;;0.17;;
23543;SDS011;11950;51.230;4.012;2024-01-15T12:39:45;0.22;;;0.10;;
23543;SDS011;11950;51.230;4.012;2024-01-15T12:42:13;1.27;;;0.20;;
23543;SDS011;11950;51.230;4.012;2024-01-15T12:44:41;1.85;;;0.20;;
23543;SDS011;11950;51.230;4.012;2024-01-15T12:47:07;2.17;;;0.30;;
23543;SDS011;11950;51.230;4.012;2024-01-15T12:49:34;4.20;;;0.30;;
23543;SDS011;11950;51.230;4.012;2024-01-15T12:52:03;1.90;;;0.30;;
23543;SDS011;11950;51.230;4.012;2024-01-15T12:54:29;1.90;;;0.30;;
23543;SDS011;11950;51.230;4.012;2024-01-15T12:56:55;4.80;;;0.40;;
23543;SDS011;11950;51.230;4.012;2024-01-15T12:59:22;1.73;;;0.40;;
23543;SDS011;11950;51.230;4.012;2024-01-15T13:01:48;2.17;;;0.30;;
23543;SDS011;11950;51.230;4.012;2024-01-15T13:04:24;0.45;;;0.20;;
23543;SDS011;11950;51.230;4.012;2024-01-15T13:06:51;0.52;;;0.13;;
23543;SDS011;11950;51.230;4.012;2024-01-15T13:09:17;0.63;;;0.20;;
23543;SDS011;11950;51.230;4.012;2024-01-15T13:11:47;1.33;;;0.20;;
23543;SDS011;11950;51.230;4.012;2024-01-15T13:14:13;1.88;;;0.10;;
23543;SDS011;11950;51.230;4.012;2024-01-15T13:16:40;0.60;;;0.20;;
23543;SDS011;11950;51.230;4.012;2024-01-15T13:19:10;0.93;;;0.73;;
23543;SDS011;11950;51.230;4.012;2024-01-15T13:21:41;1.35;;;0.13;;
23543;SDS011;11950;51.230;4.012;2024-01-15T13:24:08;0.52;;;0.10;;
23543;SDS011;11950;51.230;4.012;2024-01-15T13:26:34;0.80;;;0.30;;
23543;SDS011;11950;51.230;4.012;2024-01-15T13:29:04;0.95;;;0.30;;
23543;SDS011;11950;51.230;4.012;2024-01-15T13:31:30;2.83;;;0.45;;
23543;SDS011;11950;51.230;4.012;2024-01-15T13:33:58;0.75;;;0.45;;
23543;SDS011;11950;51.230;4.012;2024-01-15T13:36:27;1.27;;;0.50;;
23543;SDS011;11950;51.230;4.012;2024-01-15T13:38:53;1.17;;;0.40;;
23543;SDS011;11950;51.230;4.012;2024-01-15T13:41:20;2.50;;;0.30;;
23543;SDS011;11950;51.230;4.012;2024-01-15T13:43:49;4.82;;;0.40;;
23543;SDS011;11950;51.230;4.012;2024-01-15T13:46:16;2.38;;;0.45;;
23543;SDS011;11950;51.230;4.012;2024-01-15T13:48:43;3.58;;;0.35;;
23543;SDS011;11950;51.230;4.012;2024-01-15T13:51:09;2.70;;;0.40;;
23543;SDS011;11950;51.230;4.012;2024-01-15T13:53:37;4.55;;;0.30;;
23543;SDS011;11950;51.230;4.012;2024-01-15T13:56:04;2.72;;;0.30;;
23543;SDS011;11950;51.230;4.012;2024-01-15T13:58:31;3.72;;;0.40;;
23543;SDS011;11950;51.230;4.012;2024-01-15T14:00:58;2.03;;;0.38;;
23543;SDS011;11950;51.230;4.012;2024-01-15T14:03:25;1.85;;;0.30;;
23543;SDS011;11950;51.230;4.012;2024-01-15T14:05:52;2.42;;;0.40;;
23543;SDS011;11950;51.230;4.012;2024-01-15T14:08:18;3.13;;;0.70;;
23543;SDS011;11950;51.230;4.012;2024-01-15T14:10:44;2.60;;;0.70;;
23543;SDS011;11950;51.230;4.012;2024-01-15T14:13:11;3.55;;;0.80;;
23543;SDS011;11950;51.230;4.012;2024-01-15T14:15:37;4.00;;;0.70;;
23543;SDS011;11950;51.230;4.012;2024-01-15T14:18:03;7.57;;;1.00;;
23543;SDS011;11950;51.230;4.012;2024-01-15T14:20:30;1.90;;;0.75;;
23543;SDS011;11950;51.230;4.012;2024-01-15T14:22:56;7.47;;;1.00;;
23543;SDS011;11950;51.230;4.012;2024-01-15T14:25:22;7.65;;;0.70;;
23543;SDS011;11950;51.230;4.012;2024-01-15T14:27:50;5.93;;;0.60;;
23543;SDS011;11950;51.230;4.012;2024-01-15T14:30:16;7.22;;;0.98;;
23543;SDS011;11950;51.230;4.012;2024-01-15T14:32:42;2.97;;;0.73;;
23543;SDS011;11950;51.230;4.012;2024-01-15T14:35:09;4.72;;;0.73;;
23543;SDS011;11950;51.230;4.012;2024-01-15T14:37:36;7.47;;;0.85;;
23543;SDS011;11950;51.230;4.012;2024-01-15T14:40:04;8.75;;;0.98;;
23543;SDS011;11950;51.230;4.012;2024-01-15T14:42:34;2.72;;;0.70;;
23543;SDS011;11950;51.230;4.012;2024-01-15T14:45:00;7.53;;;1.00;;
23543;SDS011;11950;51.230;4.012;2024-01-15T14:47:31;6.90;;;0.80;;
23543;SDS011;11950;51.230;4.012;2024-01-15T14:49:57;5.38;;;0.60;;
23543;SDS011;11950;51.230;4.012;2024-01-15T14:52:23;5.55;;;0.65;;
23543;SDS011;11950;51.230;4.012;2024-01-15T14:54:49;4.05;;;0.52;;
23543;SDS011;11950;51.230;4.012;2024-01-15T14:57:16;4.03;;;0.40;;
23543;SDS011;11950;51.230;4.012;2024-01-15T14:59:42;2.33;;;0.35;;
23543;SDS011;11950;51.230;4.012;2024-01-15T15:02:08;3.83;;;0.50;;
23543;SDS011;11950;51.230;4.012;2024-01-15T15:04:34;1.67;;;0.47;;